Time;durP1;ratioP1;P1;durP2;ratioP2;P2;SDS_P1;SDS_P2;PMS_P1;PMS_P2;Temp;Humidity;BMP_temperature;BMP_pressure;BME280_temperature;BME280_humidity;BME280_pressure;Samples;Min_cycle;Max_cycle;Signal;HPM_P1;HPM_P2
2023/08/04 00:00:58;;;;;;;11.23;3.47;;;;;;;;;;4971372;28;20214;-60
2023/08/04 00:03:24;;;;;;;12.07;4.03;;;;;;;;;;4970228;28;20218;-60
2023/08/04 00:05:49;;;;;;;12.80;3.38;;;;;;;;;;4968242;28;20657;-60
2023/08/04 00:08:14;;;;;;;10.60;3.30;;;;;;;;;;4969870;28;20226;-60
2023/08/04 00:10:39;;;;;;;10.00;3.45;;;;;;;;;;4970916;28;20206;-60
2023/08/04 00:13:05;;;;;;;13.05;3.42;;;;;;;;;;4968591;28;20645;-60
2023/08/04 00:15:30;;;;;;;13.15;3.40;;;;;;;;;;4969724;28;20221;-60
2023/08/04 00:17:56;;;;;;;12.80;3.50;;;;;;;;;;4970972;28;21738;-60
2023/08/04 00:20:21;;;;;;;9.80;3.50;;;;;;;;;;4969429;28;20218;-59
2023/08/04 00:22:46;;;;;;;13.32;3.30;;;;;;;;;;4983191;28;20301;-60
2023/08/04 00:25:12;;;;;;;12.77;3.28;;;;;;;;;;4970553;28;20316;-60
2023/08/04 00:27:37;;;;;;;12.10;3.13;;;;;;;;;;4969880;28;20226;-60
2023/08/04 00:30:02;;;;;;;12.88;3.70;;;;;;;;;;4968627;28;20221;-60
2023/08/04 00:32:28;;;;;;;15.55;3.75;;;;;;;;;;4969991;28;20220;-60
2023/08/04 00:34:53;;;;;;;11.77;4.32;;;;;;;;;;4969763;28;20236;-60
2023/08/04 00:37:18;;;;;;;16.50;4.43;;;;;;;;;;4969132;28;20276;-60
2023/08/04 00:39:44;;;;;;;12.70;3.60;;;;;;;;;;4968822;28;20213;-60
2023/08/04 00:42:09;;;;;;;11.10;3.35;;;;;;;;;;4969329;28;20210;-60
2023/08/04 00:44:36;;;;;;;11.68;3.30;;;;;;;;;;4970637;28;20248;-60
2023/08/04 00:47:01;;;;;;;13.25;3.65;;;;;;;;;;4967402;28;20312;-60
2023/08/04 00:49:27;;;;;;;10.98;3.53;;;;;;;;;;4969421;28;20437;-60
2023/08/04 00:51:52;;;;;;;8.95;3.30;;;;;;;;;;4970218;28;20233;-60
2023/08/04 00:54:19;;;;;;;9.90;3.17;;;;;;;;;;4967296;28;20775;-60
2023/08/04 00:56:44;;;;;;;12.38;3.22;;;;;;;;;;4969555;28;20300;-60
2023/08/04 00:59:09;;;;;;;11.25;3.60;;;;;;;;;;4968288;28;20221;-60
2023/08/04 01:01:34;;;;;;;14.77;3.88;;;;;;;;;;4969070;28;20292;-60
2023/08/04 01:04:00;;;;;;;11.15;3.58;;;;;;;;;;4967927;28;20225;-60
2023/08/04 01:06:37;;;;;;;12.45;3.60;;;;;;;;;;4969579;28;20245;-60
2023/08/04 01:09:09;;;;;;;11.25;3.30;;;;;;;;;;4969094;28;20586;-59
2023/08/04 01:11:35;;;;;;;12.75;3.80;;;;;;;;;;4972753;28;20240;-60
2023/08/04 01:14:02;;;;;;;12.60;3.80;;;;;;;;;;4965606;28;20247;-60
2023/08/04 01:16:28;;;;;;;20.30;3.70;;;;;;;;;;4969392;28;20228;-60
2023/08/04 01:18:57;;;;;;;14.45;3.17;;;;;;;;;;4968428;28;20587;-60
2023/08/04 01:21:23;;;;;;;11.35;3.80;;;;;;;;;;4967822;28;20210;-60
2023/08/04 01:23:48;;;;;;;12.20;3.40;;;;;;;;;;4968144;28;20244;-60
2023/08/04 01:26:14;;;;;;;13.75;3.60;;;;;;;;;;4969336;28;20214;-60
2023/08/04 01:28:39;;;;;;;8.18;2.90;;;;;;;;;;4968939;28;20230;-60
2023/08/04 01:31:04;;;;;;;12.95;3.67;;;;;;;;;;4966858;28;20288;-61
2023/08/04 01:33:29;;;;;;;11.52;3.75;;;;;;;;;;4968318;28;20217;-60
2023/08/04 01:35:55;;;;;;;16.20;4.20;;;;;;;;;;4950200;28;20321;-60
2023/08/04 01:38:20;;;;;;;16.40;4.28;;;;;;;;;;4946790;28;20229;-60
2023/08/04 01:40:46;;;;;;;10.48;3.92;;;;;;;;;;4946753;28;20210;-60
2023/08/04 01:43:11;;;;;;;12.18;3.78;;;;;;;;;;4948541;28;20708;-60
2023/08/04 01:45:36;;;;;;;17.88;4.10;;;;;;;;;;4947687;28;20222;-60
2023/08/04 01:48:02;;;;;;;15.60;3.95;;;;;;;;;;4941269;28;20230;-60
2023/08/04 01:50:27;;;;;;;15.20;4.25;;;;;;;;;;4938733;28;20229;-60
2023/08/04 01:52:54;;;;;;;12.55;4.25;;;;;;;;;;4940216;28;20738;-60
2023/08/04 01:55:19;;;;;;;16.75;3.50;;;;;;;;;;4947735;28;21524;-60
2023/08/04 01:57:44;;;;;;;12.55;3.65;;;;;;;;;;4947837;28;20256;-60
2023/08/04 02:00:11;;;;;;;10.85;3.35;;;;;;;;;;4950877;28;20223;-60
2023/08/04 02:02:36;;;;;;;13.45;3.50;;;;;;;;;;4953975;28;20370;-60
2023/08/04 02:05:01;;;;;;;12.05;3.80;;;;;;;;;;4957466;28;20300;-60
2023/08/04 02:07:26;;;;;;;14.18;3.85;;;;;;;;;;4950993;28;20222;-60
2023/08/04 02:09:52;;;;;;;11.32;3.80;;;;;;;;;;4946974;28;20246;-60
2023/08/04 02:12:18;;;;;;;14.65;3.95;;;;;;;;;;4944363;28;20231;-60
2023/08/04 02:14:43;;;;;;;11.63;3.63;;;;;;;;;;4944203;28;21026;-60
2023/08/04 02:17:08;;;;;;;11.48;4.15;;;;;;;;;;4947903;28;20222;-60
2023/08/04 02:19:34;;;;;;;12.75;3.88;;;;;;;;;;4952783;28;20221;-60
2023/08/04 02:21:59;;;;;;;12.23;3.70;;;;;;;;;;4950979;28;20228;-60
2023/08/04 02:24:24;;;;;;;17.40;4.13;;;;;;;;;;4949850;28;20214;-60
2023/08/04 02:26:50;;;;;;;12.10;3.63;;;;;;;;;;4952188;28;20214;-60
2023/08/04 02:29:15;;;;;;;14.30;3.92;;;;;;;;;;4951803;28;20840;-60
2023/08/04 02:31:40;;;;;;;15.23;3.53;;;;;;;;;;4948784;28;20826;-60
2023/08/04 02:34:06;;;;;;;15.13;3.67;;;;;;;;;;4944152;28;20211;-60
2023/08/04 02:36:31;;;;;;;16.70;3.55;;;;;;;;;;4947605;28;20295;-60
2023/08/04 02:38:57;;;;;;;15.93;3.83;;;;;;;;;;4969801;28;20202;-60
2023/08/04 02:41:22;;;;;;;9.98;3.63;;;;;;;;;;4971601;28;20225;-59
2023/08/04 02:43:47;;;;;;;13.73;3.90;;;;;;;;;;4970183;28;20224;-60
2023/08/04 02:46:12;;;;;;;13.45;3.92;;;;;;;;;;4971687;28;20267;-60
2023/08/04 02:48:38;;;;;;;13.48;4.05;;;;;;;;;;4971956;28;20304;-60
2023/08/04 02:51:05;;;;;;;12.90;3.78;;;;;;;;;;4970178;28;20233;-60
2023/08/04 02:53:30;;;;;;;12.38;3.70;;;;;;;;;;4971500;28;20369;-60
2023/08/04 02:55:55;;;;;;;12.40;3.47;;;;;;;;;;4971400;28;20703;-60
2023/08/04 02:58:21;;;;;;;12.85;3.40;;;;;;;;;;4971354;28;20568;-60
2023/08/04 03:00:47;;;;;;;11.75;4.00;;;;;;;;;;4969581;28;20224;-60
2023/08/04 03:03:12;;;;;;;12.35;3.67;;;;;;;;;;4971780;28;20214;-60
2023/08/04 03:05:37;;;;;;;11.40;3.25;;;;;;;;;;4972283;28;20225;-60
2023/08/04 03:08:03;;;;;;;14.23;3.90;;;;;;;;;;4968552;28;20234;-60
2023/08/04 03:10:28;;;;;;;11.55;3.70;;;;;;;;;;4970663;28;20217;-59
2023/08/04 03:12:53;;;;;;;11.70;3.90;;;;;;;;;;4969970;28;20234;-60
2023/08/04 03:15:18;;;;;;;13.55;4.32;;;;;;;;;;4969499;28;20272;-60
2023/08/04 03:17:44;;;;;;;13.55;4.15;;;;;;;;;;4971012;28;20214;-60
2023/08/04 03:20:09;;;;;;;13.75;4.40;;;;;;;;;;4971420;28;20312;-61
2023/08/04 03:22:34;;;;;;;14.15;4.40;;;;;;;;;;4962469;28;21179;-60
2023/08/04 03:25:00;;;;;;;12.38;4.88;;;;;;;;;;4947205;28;20226;-60
2023/08/04 03:27:27;;;;;;;16.73;4.90;;;;;;;;;;4949729;28;20309;-60
2023/08/04 03:29:52;;;;;;;16.70;4.80;;;;;;;;;;4949621;28;20364;-61
2023/08/04 03:32:17;;;;;;;23.25;5.40;;;;;;;;;;4952399;28;20768;-61
2023/08/04 03:34:43;;;;;;;18.50;4.80;;;;;;;;;;4948457;28;20214;-61
2023/08/04 03:37:08;;;;;;;25.63;5.20;;;;;;;;;;4948919;28;21072;-61
2023/08/04 03:39:33;;;;;;;13.80;4.60;;;;;;;;;;4949335;28;20226;-61
2023/08/04 03:41:58;;;;;;;13.73;5.53;;;;;;;;;;4941480;28;20233;-60
2023/08/04 03:44:24;;;;;;;12.93;4.88;;;;;;;;;;4937558;28;20230;-60
2023/08/04 03:46:49;;;;;;;17.63;5.10;;;;;;;;;;4944092;28;20221;-60
2023/08/04 03:49:14;;;;;;;13.73;4.72;;;;;;;;;;4948420;28;20273;-61
2023/08/04 03:51:40;;;;;;;67.60;7.15;;;;;;;;;;4948520;28;20222;-60
2023/08/04 03:54:05;;;;;;;15.02;5.15;;;;;;;;;;4949983;28;20206;-61
2023/08/04 03:56:31;;;;;;;13.98;5.00;;;;;;;;;;4949720;28;20301;-60
2023/08/04 03:58:56;;;;;;;12.90;5.15;;;;;;;;;;4948578;28;20269;-61
2023/08/04 04:01:21;;;;;;;15.25;5.68;;;;;;;;;;4951140;28;20518;-60
2023/08/04 04:03:46;;;;;;;17.05;6.00;;;;;;;;;;4944003;28;20302;-60
2023/08/04 04:06:12;;;;;;;15.85;5.85;;;;;;;;;;4940622;28;20273;-60
2023/08/04 04:08:37;;;;;;;18.73;5.90;;;;;;;;;;4943193;28;20249;-61
2023/08/04 04:11:02;;;;;;;13.95;5.40;;;;;;;;;;4947423;28;20229;-61
2023/08/04 04:13:28;;;;;;;33.47;5.97;;;;;;;;;;4946808;28;20214;-60
2023/08/04 04:15:53;;;;;;;18.08;6.20;;;;;;;;;;4949323;28;20222;-60
2023/08/04 04:18:18;;;;;;;25.70;7.13;;;;;;;;;;4949415;28;20232;-61
2023/08/04 04:20:44;;;;;;;19.20;6.03;;;;;;;;;;4948020;28;20225;-61
2023/08/04 04:23:09;;;;;;;31.38;6.95;;;;;;;;;;4947445;28;20581;-61
2023/08/04 04:25:34;;;;;;;30.98;7.25;;;;;;;;;;4945858;28;20325;-61
2023/08/04 04:27:59;;;;;;;75.25;10.95;;;;;;;;;;4940769;28;20578;-61
2023/08/04 04:30:25;;;;;;;17.35;5.95;;;;;;;;;;4940006;28;21038;-61
2023/08/04 04:32:50;;;;;;;15.85;6.07;;;;;;;;;;4945284;28;20217;-61
2023/08/04 04:35:15;;;;;;;14.90;6.53;;;;;;;;;;4948221;28;20669;-61
2023/08/04 04:37:40;;;;;;;21.45;6.40;;;;;;;;;;4948491;28;20723;-61
2023/08/04 04:40:06;;;;;;;12.88;6.30;;;;;;;;;;4947157;28;20265;-61
2023/08/04 04:42:32;;;;;;;16.40;6.15;;;;;;;;;;4951828;28;20555;-61
2023/08/04 04:44:58;;;;;;;19.17;6.22;;;;;;;;;;4947664;28;20244;-61
2023/08/04 04:47:23;;;;;;;14.10;5.90;;;;;;;;;;4946277;28;20337;-61
2023/08/04 04:49:48;;;;;;;16.65;6.28;;;;;;;;;;4943803;28;20233;-61
2023/08/04 04:52:14;;;;;;;20.85;5.75;;;;;;;;;;4940635;28;20252;-61
2023/08/04 04:54:39;;;;;;;14.57;5.82;;;;;;;;;;4940319;28;20222;-60
2023/08/04 04:57:05;;;;;;;15.25;6.53;;;;;;;;;;4948972;28;20214;-60
2023/08/04 04:59:30;;;;;;;18.30;7.43;;;;;;;;;;4948478;28;20222;-60
2023/08/04 05:01:55;;;;;;;20.90;7.15;;;;;;;;;;4947449;28;20265;-60
2023/08/04 05:04:21;;;;;;;16.83;6.85;;;;;;;;;;4947793;28;20312;-60
2023/08/04 05:06:46;;;;;;;18.23;7.15;;;;;;;;;;4950557;28;20582;-60
2023/08/04 05:09:11;;;;;;;33.40;8.52;;;;;;;;;;4947047;28;20214;-60
2023/08/04 05:11:37;;;;;;;17.60;6.93;;;;;;;;;;4943070;28;20211;-60
2023/08/04 05:14:02;;;;;;;17.45;6.90;;;;;;;;;;4941334;28;20229;-60
2023/08/04 05:16:27;;;;;;;13.68;7.15;;;;;;;;;;4939978;28;21203;-60
2023/08/04 05:18:53;;;;;;;29.45;7.65;;;;;;;;;;4946725;28;20224;-60
2023/08/04 05:21:18;;;;;;;32.85;8.60;;;;;;;;;;4948570;28;20221;-60
2023/08/04 05:23:43;;;;;;;17.95;6.07;;;;;;;;;;4949573;28;20305;-60
2023/08/04 05:26:09;;;;;;;15.75;5.65;;;;;;;;;;4947447;28;20704;-60
2023/08/04 05:28:34;;;;;;;17.27;5.60;;;;;;;;;;4947217;28;20674;-60
2023/08/04 05:31:00;;;;;;;12.73;5.80;;;;;;;;;;4949848;28;20218;-60
2023/08/04 05:33:26;;;;;;;14.57;5.75;;;;;;;;;;4943119;28;20226;-60
2023/08/04 05:35:51;;;;;;;10.77;5.82;;;;;;;;;;4938736;28;20210;-60
2023/08/04 05:38:16;;;;;;;15.47;6.17;;;;;;;;;;4938477;28;20567;-60
2023/08/04 05:40:43;;;;;;;12.95;6.10;;;;;;;;;;4944252;28;20233;-60
2023/08/04 05:43:09;;;;;;;13.25;5.75;;;;;;;;;;4945933;28;20222;-61
2023/08/04 05:45:35;;;;;;;15.47;5.73;;;;;;;;;;4945726;28;20809;-60
2023/08/04 05:48:00;;;;;;;15.93;4.97;;;;;;;;;;4947592;28;20269;-61
2023/08/04 05:50:26;;;;;;;13.02;4.65;;;;;;;;;;4946508;28;20237;-61
2023/08/04 05:52:52;;;;;;;13.57;4.57;;;;;;;;;;4947510;28;20659;-61
2023/08/04 05:55:17;;;;;;;12.80;4.50;;;;;;;;;;4948025;28;20220;-60
2023/08/04 05:57:42;;;;;;;310.48;23.25;;;;;;;;;;4939376;28;20210;-60
2023/08/04 06:00:08;;;;;;;24.50;4.90;;;;;;;;;;4939036;28;20546;-61
2023/08/04 06:02:33;;;;;;;13.48;4.20;;;;;;;;;;4941816;28;20655;-60
2023/08/04 06:04:58;;;;;;;19.23;4.00;;;;;;;;;;4946502;28;20268;-61
2023/08/04 06:07:24;;;;;;;9.38;3.53;;;;;;;;;;4946499;28;20234;-61
2023/08/04 06:09:49;;;;;;;9.98;3.17;;;;;;;;;;4947008;28;20225;-61
2023/08/04 06:12:14;;;;;;;11.77;3.53;;;;;;;;;;4947703;28;20222;-61
2023/08/04 06:14:39;;;;;;;7.35;3.15;;;;;;;;;;4945151;28;20210;-60
2023/08/04 06:17:05;;;;;;;8.45;2.90;;;;;;;;;;4944645;28;20246;-63
2023/08/04 06:19:30;;;;;;;8.43;2.83;;;;;;;;;;4941181;28;20581;-62
2023/08/04 06:21:56;;;;;;;7.78;2.60;;;;;;;;;;4939154;28;20683;-62
2023/08/04 06:24:26;;;;;;;8.55;2.70;;;;;;;;;;4938534;28;20225;-62
2023/08/04 06:26:51;;;;;;;8.32;2.75;;;;;;;;;;4946403;28;20216;-61
2023/08/04 06:29:17;;;;;;;8.45;2.40;;;;;;;;;;4948813;28;20628;-62
2023/08/04 06:31:42;;;;;;;7.20;2.40;;;;;;;;;;4947503;28;20214;-61
2023/08/04 06:34:08;;;;;;;10.07;2.90;;;;;;;;;;4945876;28;20241;-61
2023/08/04 06:36:33;;;;;;;8.23;2.70;;;;;;;;;;4950374;28;20294;-62
2023/08/04 06:38:58;;;;;;;9.27;2.40;;;;;;;;;;4946514;28;20804;-62
2023/08/04 06:41:24;;;;;;;10.35;2.65;;;;;;;;;;4942901;28;20497;-62
2023/08/04 06:43:49;;;;;;;13.07;3.00;;;;;;;;;;4941643;28;20237;-63
2023/08/04 06:46:14;;;;;;;9.07;2.40;;;;;;;;;;4941473;28;20320;-61
2023/08/04 06:48:39;;;;;;;25.35;4.25;;;;;;;;;;4947539;28;20229;-62
2023/08/04 06:51:05;;;;;;;24.98;3.97;;;;;;;;;;4949787;28;20241;-61
2023/08/04 06:53:30;;;;;;;16.80;3.00;;;;;;;;;;4954368;28;20222;-61
2023/08/04 06:55:55;;;;;;;8.65;2.88;;;;;;;;;;4969566;28;20357;-61
2023/08/04 06:58:21;;;;;;;20.52;3.45;;;;;;;;;;4964814;28;20256;-61
2023/08/04 07:00:46;;;;;;;15.82;3.00;;;;;;;;;;4967541;28;20221;-61
2023/08/04 07:03:12;;;;;;;17.38;3.03;;;;;;;;;;4965947;28;20221;-60
2023/08/04 07:05:38;;;;;;;13.32;2.67;;;;;;;;;;4972167;28;20816;-60
2023/08/04 07:08:03;;;;;;;10.15;2.70;;;;;;;;;;4969748;28;20228;-60
2023/08/04 07:10:28;;;;;;;15.48;2.67;;;;;;;;;;4971029;28;20360;-61
2023/08/04 07:12:54;;;;;;;15.75;3.13;;;;;;;;;;4971163;28;20245;-61
2023/08/04 07:15:19;;;;;;;8.80;2.20;;;;;;;;;;4970475;28;20305;-60
2023/08/04 07:17:44;;;;;;;8.90;2.40;;;;;;;;;;4969915;28;20272;-61
2023/08/04 07:20:10;;;;;;;9.50;2.50;;;;;;;;;;4971535;28;20221;-60
2023/08/04 07:22:35;;;;;;;9.05;2.20;;;;;;;;;;4970960;28;20217;-61
2023/08/04 07:25:00;;;;;;;13.20;2.65;;;;;;;;;;4969513;28;20229;-60
2023/08/04 07:27:25;;;;;;;6.68;2.30;;;;;;;;;;4971091;28;20774;-61
2023/08/04 07:29:51;;;;;;;8.50;2.20;;;;;;;;;;4970799;28;20218;-61
2023/08/04 07:32:17;;;;;;;11.70;2.20;;;;;;;;;;4970238;28;20687;-60
2023/08/04 07:34:42;;;;;;;9.23;2.20;;;;;;;;;;4970431;28;20210;-60
2023/08/04 07:37:07;;;;;;;28.75;3.83;;;;;;;;;;4970442;28;20209;-60
2023/08/04 07:39:33;;;;;;;7.22;2.13;;;;;;;;;;4971541;28;20206;-60
2023/08/04 07:41:58;;;;;;;6.00;2.00;;;;;;;;;;4969301;28;20225;-60
2023/08/04 07:44:23;;;;;;;20.60;3.03;;;;;;;;;;4975551;28;20588;-60
2023/08/04 07:46:49;;;;;;;6.10;2.00;;;;;;;;;;4971790;28;20248;-60
2023/08/04 07:49:14;;;;;;;19.90;3.05;;;;;;;;;;4968270;28;20234;-61
2023/08/04 07:51:40;;;;;;;11.85;2.53;;;;;;;;;;4970845;28;20218;-60
2023/08/04 07:54:05;;;;;;;13.30;2.75;;;;;;;;;;4970583;28;20217;-60
2023/08/04 07:56:32;;;;;;;16.38;2.65;;;;;;;;;;4969099;28;20599;-60
2023/08/04 07:58:57;;;;;;;40.08;4.25;;;;;;;;;;4969502;28;20218;-60
2023/08/04 08:01:23;;;;;;;14.60;2.88;;;;;;;;;;4970588;28;20294;-61
2023/08/04 08:03:48;;;;;;;14.52;2.92;;;;;;;;;;4969962;28;20605;-61
2023/08/04 08:06:13;;;;;;;12.20;3.00;;;;;;;;;;4967995;28;20666;-61
2023/08/04 08:08:38;;;;;;;13.98;2.60;;;;;;;;;;4971003;28;20229;-61
2023/08/04 08:11:09;;;;;;;7.65;2.55;;;;;;;;;;4969868;28;20241;-61
2023/08/04 08:13:35;;;;;;;9.43;2.50;;;;;;;;;;4969323;28;20309;-61
2023/08/04 08:16:07;;;;;;;6.00;2.30;;;;;;;;;;4969671;28;20638;-61
2023/08/04 08:18:32;;;;;;;9.50;2.53;;;;;;;;;;4971084;28;20244;-62
2023/08/04 08:20:57;;;;;;;6.88;2.45;;;;;;;;;;4973778;28;20233;-64
2023/08/04 08:23:23;;;;;;;7.35;2.65;;;;;;;;;;4973008;28;20210;-62
2023/08/04 08:25:48;;;;;;;6.00;2.58;;;;;;;;;;4972777;28;20742;-62
2023/08/04 08:28:13;;;;;;;7.28;2.30;;;;;;;;;;4971734;28;20240;-61
2023/08/04 08:30:39;;;;;;;6.00;2.50;;;;;;;;;;4973268;28;20202;-62
2023/08/04 08:33:04;;;;;;;5.78;1.73;;;;;;;;;;4972208;28;20228;-62
2023/08/04 08:35:29;;;;;;;3.88;1.70;;;;;;;;;;4973481;28;20209;-62
2023/08/04 08:37:55;;;;;;;21.00;2.05;;;;;;;;;;4973351;28;20229;-62
2023/08/04 08:40:23;;;;;;;34.92;3.53;;;;;;;;;;4972004;28;20210;-62
2023/08/04 08:42:48;;;;;;;16.60;2.25;;;;;;;;;;4976369;28;20212;-65
2023/08/04 08:45:13;;;;;;;4.55;1.60;;;;;;;;;;4971559;28;20213;-63
2023/08/04 08:47:38;;;;;;;3.10;1.48;;;;;;;;;;4971510;28;20256;-63
2023/08/04 08:50:04;;;;;;;4.75;1.30;;;;;;;;;;4968973;28;20225;-63
2023/08/04 08:52:31;;;;;;;3.35;1.52;;;;;;;;;;4967775;28;20371;-62
2023/08/04 08:54:57;;;;;;;3.55;1.70;;;;;;;;;;4970134;28;20224;-63
2023/08/04 08:57:22;;;;;;;5.18;1.60;;;;;;;;;;4968674;28;20217;-62
2023/08/04 08:59:48;;;;;;;3.42;1.60;;;;;;;;;;4967044;28;20692;-63
2023/08/04 09:02:13;;;;;;;3.05;1.73;;;;;;;;;;4969481;28;20206;-63
2023/08/04 09:04:38;;;;;;;4.65;1.70;;;;;;;;;;4969934;28;20376;-63
2023/08/04 09:07:04;;;;;;;6.25;1.90;;;;;;;;;;4967044;28;20605;-62
2023/08/04 09:09:29;;;;;;;6.85;2.15;;;;;;;;;;4968329;28;20271;-63
2023/08/04 09:11:56;;;;;;;37.17;3.35;;;;;;;;;;4970221;28;20206;-63
2023/08/04 09:14:21;;;;;;;10.30;2.63;;;;;;;;;;4968364;28;20230;-63
2023/08/04 09:16:47;;;;;;;55.78;4.80;;;;;;;;;;4966415;28;20754;-64
2023/08/04 09:19:12;;;;;;;23.73;2.65;;;;;;;;;;4967895;28;20214;-62
2023/08/04 09:21:37;;;;;;;3.70;1.70;;;;;;;;;;4969094;28;20209;-62
2023/08/04 09:24:03;;;;;;;7.90;2.03;;;;;;;;;;4967318;28;20240;-61
2023/08/04 09:26:44;;;;;;;9.80;2.20;;;;;;;;;;4969322;28;20293;-61
2023/08/04 09:29:10;;;;;;;3.83;1.63;;;;;;;;;;4968078;28;20225;-61
2023/08/04 09:31:36;;;;;;;4.32;1.50;;;;;;;;;;4969419;28;20214;-61
2023/08/04 09:34:02;;;;;;;2.85;1.40;;;;;;;;;;4967165;28;20658;-61
2023/08/04 09:36:28;;;;;;;12.68;2.05;;;;;;;;;;4968447;28;20217;-61
2023/08/04 09:38:53;;;;;;;6.28;1.60;;;;;;;;;;4968362;28;20237;-62
2023/08/04 09:41:18;;;;;;;6.85;1.58;;;;;;;;;;4965750;28;20225;-61
2023/08/04 09:43:45;;;;;;;5.70;1.52;;;;;;;;;;4967910;28;20216;-62
2023/08/04 09:46:10;;;;;;;35.35;3.28;;;;;;;;;;4968468;28;20585;-61
2023/08/04 09:48:36;;;;;;;26.07;3.00;;;;;;;;;;4967148;28;20440;-62
2023/08/04 09:51:09;;;;;;;3.80;1.10;;;;;;;;;;4966330;28;20217;-61
2023/08/04 09:53:42;;;;;;;6.85;1.55;;;;;;;;;;4964718;28;20678;-61
2023/08/04 09:56:08;;;;;;;9.73;1.58;;;;;;;;;;4962269;28;20582;-61
2023/08/04 09:58:34;;;;;;;3.22;1.30;;;;;;;;;;4964823;28;20213;-61
2023/08/04 10:00:59;;;;;;;53.15;5.15;;;;;;;;;;4962333;28;20284;-61
2023/08/04 10:03:24;;;;;;;30.70;3.88;;;;;;;;;;4961626;28;20218;-60
2023/08/04 10:05:50;;;;;;;3.65;1.20;;;;;;;;;;4964205;28;20305;-61
2023/08/04 10:08:15;;;;;;;3.30;1.08;;;;;;;;;;4962515;28;20222;-60
2023/08/04 10:10:41;;;;;;;6.10;1.30;;;;;;;;;;4961916;28;20267;-61
2023/08/04 10:13:06;;;;;;;3.83;1.20;;;;;;;;;;4962158;28;20210;-61
2023/08/04 10:15:31;;;;;;;6.10;1.30;;;;;;;;;;4965708;28;20221;-62
2023/08/04 10:17:57;;;;;;;30.38;3.35;;;;;;;;;;4961447;28;20612;-63
2023/08/04 10:20:22;;;;;;;6.72;1.30;;;;;;;;;;4971282;28;20218;-62
2023/08/04 10:22:48;;;;;;;24.42;2.70;;;;;;;;;;4969999;28;20222;-60
2023/08/04 10:25:15;;;;;;;4.78;1.25;;;;;;;;;;4969719;28;20305;-61
2023/08/04 10:27:47;;;;;;;12.18;1.65;;;;;;;;;;4972461;28;20226;-61
2023/08/04 10:30:12;;;;;;;88.13;5.82;;;;;;;;;;4971665;28;20624;-61
2023/08/04 10:32:38;;;;;;;9.35;1.35;;;;;;;;;;4969983;28;20662;-61
2023/08/04 10:35:04;;;;;;;37.33;3.47;;;;;;;;;;4972121;28;20307;-61
2023/08/04 10:37:29;;;;;;;13.57;1.70;;;;;;;;;;4972556;28;20533;-60
2023/08/04 10:39:55;;;;;;;31.25;2.90;;;;;;;;;;4969707;28;20222;-61
2023/08/04 10:42:21;;;;;;;4.90;1.20;;;;;;;;;;4971824;28;20228;-61
2023/08/04 10:44:50;;;;;;;4.05;1.30;;;;;;;;;;4972646;28;20284;-61
2023/08/04 10:47:16;;;;;;;2.55;1.00;;;;;;;;;;4974339;28;20225;-61
2023/08/04 10:49:42;;;;;;;4.55;1.10;;;;;;;;;;4974218;28;20331;-61
2023/08/04 10:52:07;;;;;;;4.30;1.10;;;;;;;;;;4970960;28;20233;-60
2023/08/04 10:54:32;;;;;;;5.35;1.20;;;;;;;;;;4972471;28;20218;-61
2023/08/04 10:56:58;;;;;;;14.73;1.80;;;;;;;;;;4969940;28;20640;-61
2023/08/04 10:59:23;;;;;;;5.38;1.10;;;;;;;;;;4971368;28;20213;-61
2023/08/04 11:01:48;;;;;;;18.75;2.17;;;;;;;;;;4972537;28;20602;-61
2023/08/04 11:04:14;;;;;;;5.63;1.30;;;;;;;;;;4970013;28;20973;-61
2023/08/04 11:06:40;;;;;;;3.33;1.10;;;;;;;;;;4970449;28;20218;-61
2023/08/04 11:09:05;;;;;;;5.65;1.40;;;;;;;;;;4971871;28;20218;-61
2023/08/04 11:11:31;;;;;;;4.40;1.20;;;;;;;;;;4971503;28;20214;-60
2023/08/04 11:13:57;;;;;;;3.97;1.23;;;;;;;;;;4969018;28;20213;-61
2023/08/04 11:16:23;;;;;;;19.45;2.50;;;;;;;;;;4970229;28;20763;-61
2023/08/04 11:18:48;;;;;;;10.00;1.80;;;;;;;;;;4971599;28;20209;-61
2023/08/04 11:21:14;;;;;;;11.18;1.80;;;;;;;;;;4967173;28;20221;-60
2023/08/04 11:23:39;;;;;;;12.68;1.75;;;;;;;;;;4971988;28;20212;-61
2023/08/04 11:26:04;;;;;;;5.15;1.30;;;;;;;;;;4971610;28;21103;-60
2023/08/04 11:28:32;;;;;;;5.25;1.30;;;;;;;;;;4968240;28;20234;-60
2023/08/04 11:31:03;;;;;;;9.63;1.85;;;;;;;;;;4968328;28;20217;-60
2023/08/04 11:33:28;;;;;;;6.38;1.30;;;;;;;;;;4971288;28;21029;-61
2023/08/04 11:35:53;;;;;;;5.88;1.70;;;;;;;;;;4970826;28;20272;-61
2023/08/04 11:38:19;;;;;;;6.50;1.30;;;;;;;;;;4968899;28;20226;-61
2023/08/04 11:40:54;;;;;;;6.88;1.55;;;;;;;;;;4971651;28;20236;-61
2023/08/04 11:43:19;;;;;;;6.18;1.33;;;;;;;;;;4973396;28;20224;-61
2023/08/04 11:45:46;;;;;;;10.95;1.65;;;;;;;;;;4970219;28;20296;-61
2023/08/04 11:48:11;;;;;;;5.43;1.38;;;;;;;;;;4970275;28;20560;-61
2023/08/04 11:50:36;;;;;;;5.57;1.70;;;;;;;;;;4970582;28;20236;-60
2023/08/04 11:53:02;;;;;;;6.03;1.50;;;;;;;;;;4969122;28;20214;-61
2023/08/04 11:55:27;;;;;;;5.90;1.73;;;;;;;;;;4968900;28;20316;-60
2023/08/04 11:57:53;;;;;;;5.70;1.50;;;;;;;;;;4971388;28;20678;-61
2023/08/04 12:00:31;;;;;;;6.03;1.70;;;;;;;;;;4970906;28;20217;-61
2023/08/04 12:02:57;;;;;;;6.00;1.77;;;;;;;;;;4969248;28;20233;-60
2023/08/04 12:05:27;;;;;;;6.70;1.70;;;;;;;;;;4969627;28;20306;-60
2023/08/04 12:07:55;;;;;;;7.43;1.40;;;;;;;;;;4971017;28;20246;-61
2023/08/04 12:10:20;;;;;;;4.97;1.80;;;;;;;;;;4969186;28;20700;-60
2023/08/04 12:12:46;;;;;;;6.40;1.50;;;;;;;;;;4968752;28;20220;-61
2023/08/04 12:15:11;;;;;;;8.00;1.85;;;;;;;;;;4970646;28;20273;-60
2023/08/04 12:17:38;;;;;;;9.27;1.63;;;;;;;;;;4970330;28;20214;-61
2023/08/04 12:20:04;;;;;;;18.33;2.42;;;;;;;;;;4968501;28;20552;-60
2023/08/04 12:22:30;;;;;;;4.85;1.42;;;;;;;;;;4970218;28;20225;-61
2023/08/04 12:24:55;;;;;;;8.68;1.63;;;;;;;;;;4969644;28;20225;-60
2023/08/04 12:27:20;;;;;;;5.80;1.70;;;;;;;;;;4969250;28;20238;-60
2023/08/04 12:29:46;;;;;;;8.90;2.00;;;;;;;;;;4968937;28;20622;-61
2023/08/04 12:32:11;;;;;;;5.15;1.60;;;;;;;;;;4969278;28;20595;-60
2023/08/04 12:34:36;;;;;;;124.10;9.57;;;;;;;;;;4970735;28;20224;-60
2023/08/04 12:37:01;;;;;;;7.57;1.92;;;;;;;;;;4967625;28;20229;-60
2023/08/04 12:39:28;;;;;;;15.63;2.42;;;;;;;;;;4969490;28;20572;-60
2023/08/04 12:41:53;;;;;;;5.18;1.60;;;;;;;;;;4969928;28;20532;-60
2023/08/04 12:44:18;;;;;;;5.95;1.52;;;;;;;;;;4968559;28;20209;-60
2023/08/04 12:46:44;;;;;;;5.78;1.73;;;;;;;;;;4969058;28;20508;-60
2023/08/04 12:49:09;;;;;;;8.70;1.92;;;;;;;;;;4969733;28;20241;-60
2023/08/04 12:51:34;;;;;;;8.38;2.00;;;;;;;;;;4968882;28;20213;-60
2023/08/04 12:54:00;;;;;;;4.63;1.50;;;;;;;;;;4968461;28;20218;-60
2023/08/04 12:56:25;;;;;;;5.20;1.58;;;;;;;;;;4969813;28;20805;-60
2023/08/04 12:58:50;;;;;;;6.05;1.50;;;;;;;;;;4969600;28;20217;-60
2023/08/04 13:01:15;;;;;;;7.22;1.70;;;;;;;;;;4967330;28;20218;-60
2023/08/04 13:03:41;;;;;;;6.97;1.75;;;;;;;;;;4969874;28;20225;-59
2023/08/04 13:06:06;;;;;;;5.40;1.42;;;;;;;;;;4968185;28;20218;-60
2023/08/04 13:08:31;;;;;;;6.15;1.60;;;;;;;;;;4968208;28;20218;-60
2023/08/04 13:10:58;;;;;;;7.32;1.83;;;;;;;;;;4968785;28;20217;-60
2023/08/04 13:13:24;;;;;;;6.10;1.50;;;;;;;;;;4967458;28;20276;-59
2023/08/04 13:15:49;;;;;;;9.95;1.60;;;;;;;;;;4969599;28;20222;-60
2023/08/04 13:18:14;;;;;;;5.60;1.50;;;;;;;;;;4967281;28;20206;-60
2023/08/04 13:20:40;;;;;;;5.63;1.50;;;;;;;;;;4969088;28;20213;-60
2023/08/04 13:23:05;;;;;;;9.05;1.70;;;;;;;;;;4968969;28;20224;-60
2023/08/04 13:25:38;;;;;;;45.15;4.53;;;;;;;;;;4967224;28;20213;-60
2023/08/04 13:28:04;;;;;;;19.05;2.53;;;;;;;;;;4967711;28;20968;-59
2023/08/04 13:30:29;;;;;;;27.30;2.97;;;;;;;;;;4969374;28;20221;-59
2023/08/04 13:32:54;;;;;;;4.40;1.40;;;;;;;;;;4959499;28;20309;-60
2023/08/04 13:35:20;;;;;;;4.78;1.30;;;;;;;;;;4952598;28;20234;-60
2023/08/04 13:37:45;;;;;;;8.18;1.50;;;;;;;;;;4956084;28;20689;-60
2023/08/04 13:40:11;;;;;;;3.67;1.40;;;;;;;;;;4957775;28;20300;-61
2023/08/04 13:42:36;;;;;;;166.65;11.48;;;;;;;;;;4959809;28;20260;-60
2023/08/04 13:45:01;;;;;;;5.35;1.40;;;;;;;;;;4963068;28;20232;-59
2023/08/04 13:47:26;;;;;;;4.05;1.50;;;;;;;;;;4963737;28;20229;-59
2023/08/04 13:49:52;;;;;;;4.40;1.40;;;;;;;;;;4960986;28;20228;-59
2023/08/04 13:52:17;;;;;;;5.68;1.63;;;;;;;;;;4956669;28;20261;-60
2023/08/04 13:54:42;;;;;;;5.60;1.33;;;;;;;;;;4965128;28;20213;-59
2023/08/04 13:57:08;;;;;;;4.45;1.25;;;;;;;;;;4960144;28;20226;-60
2023/08/04 13:59:33;;;;;;;5.22;1.67;;;;;;;;;;4960398;28;20471;-60
2023/08/04 14:01:58;;;;;;;5.05;1.48;;;;;;;;;;4961835;28;20343;-60
2023/08/04 14:04:24;;;;;;;5.80;1.40;;;;;;;;;;4968123;28;20221;-60
2023/08/04 14:06:49;;;;;;;37.25;3.58;;;;;;;;;;4965082;28;20367;-59
2023/08/04 14:09:15;;;;;;;9.32;1.80;;;;;;;;;;4967760;28;20226;-60
2023/08/04 14:11:40;;;;;;;9.68;1.88;;;;;;;;;;4969137;28;20677;-60
2023/08/04 14:14:05;;;;;;;4.85;1.42;;;;;;;;;;4966834;28;20231;-60
2023/08/04 14:16:31;;;;;;;13.95;2.08;;;;;;;;;;4965526;28;20213;-59
2023/08/04 14:18:56;;;;;;;4.68;1.30;;;;;;;;;;4964552;28;20225;-60
2023/08/04 14:21:21;;;;;;;29.67;2.05;;;;;;;;;;4960255;28;20214;-60
2023/08/04 14:23:47;;;;;;;92.05;6.80;;;;;;;;;;4960288;28;20205;-60
2023/08/04 14:26:12;;;;;;;12.93;1.90;;;;;;;;;;4966146;28;20232;-60